Time;durP1;ratioP1;P1;durP2;ratioP2;P2;SDS_P1;SDS_P2;PMS_P1;PMS_P2;Temp;Humidity;BMP_temperature;BMP_pressure;BME280_temperature;BME280_humidity;BME280_pressure;Samples;Min_cycle;Max_cycle;Signal;HPM_P1;HPM_P2
2021/08/03 00:00:36;;;;;;;6.83;4.92;;;;;;;14.34;70.10;100097.59;2095573;84;33015;-66
2021/08/03 00:04:02;;;;;;;4.65;4.25;;;;;;;14.38;70.31;100105.86;2104952;84;27627;-66
2021/08/03 00:07:05;;;;;;;5.17;4.67;;;;;;;14.42;70.56;100103.81;2105315;84;28199;-65
2021/08/03 00:10:08;;;;;;;5.50;4.97;;;;;;;14.46;70.68;100103.10;2105206;83;29594;-66
2021/08/03 00:13:10;;;;;;;6.78;4.97;;;;;;;14.49;70.70;100111.83;2105237;84;31172;-66
2021/08/03 00:16:13;;;;;;;5.47;4.80;;;;;;;14.52;70.70;100108.92;2104927;84;33094;-66
2021/08/03 00:19:15;;;;;;;4.90;4.50;;;;;;;14.55;70.74;100103.33;2105097;84;29808;-66
2021/08/03 00:22:17;;;;;;;5.28;4.70;;;;;;;14.57;70.83;100106.78;2105215;84;27795;-67
2021/08/03 00:25:19;;;;;;;4.97;4.45;;;;;;;14.61;70.88;100105.23;2141627;83;29661;-66
2021/08/03 00:28:22;;;;;;;5.72;4.62;;;;;;;14.65;70.91;100105.37;2142106;83;31030;-66
2021/08/03 00:31:26;;;;;;;5.40;4.55;;;;;;;14.69;70.96;100109.15;2142023;83;32404;-67
2021/08/03 00:34:28;;;;;;;7.78;5.08;;;;;;;14.72;71.13;100111.63;2109880;83;35272;-67
2021/08/03 00:37:30;;;;;;;6.53;4.35;;;;;;;14.77;71.21;100115.35;2105306;84;27707;-66
2021/08/03 00:40:36;;;;;;;6.00;4.40;;;;;;;14.82;71.26;100109.13;2105079;84;29465;-67
2021/08/03 00:43:37;;;;;;;4.58;4.17;;;;;;;14.86;71.30;100113.34;2118886;82;31035;-66
2021/08/03 00:46:40;;;;;;;5.28;4.75;;;;;;;14.92;71.41;100114.73;2122723;83;33586;-67
2021/08/03 00:49:43;;;;;;;5.60;4.47;;;;;;;14.97;71.52;100109.03;2128103;82;30494;-66
2021/08/03 00:52:46;;;;;;;5.70;4.17;;;;;;;15.01;71.47;100110.52;2120816;83;27718;-66
2021/08/03 00:55:49;;;;;;;4.92;4.53;;;;;;;15.04;71.54;100110.30;2105050;84;29670;-66
2021/08/03 00:58:51;;;;;;;5.35;4.70;;;;;;;15.09;71.62;100116.24;2105180;84;31692;-66
2021/08/03 01:01:54;;;;;;;7.47;5.08;;;;;;;15.15;71.60;100113.59;2104801;84;33925;-65
2021/08/03 01:04:56;;;;;;;4.67;4.28;;;;;;;15.19;71.75;100117.80;2105318;83;29640;-66
2021/08/03 01:08:10;;;;;;;5.28;4.78;;;;;;;15.23;71.57;100117.08;2105247;84;27619;-66
2021/08/03 01:11:29;;;;;;;5.10;4.60;;;;;;;15.26;71.68;100116.36;2105059;84;29605;-66
2021/08/03 01:14:42;;;;;;;7.05;4.33;;;;;;;15.30;71.68;100118.37;2105251;84;31209;-66
2021/08/03 01:17:55;;;;;;;6.25;4.60;;;;;;;15.34;71.71;100109.94;2134863;82;33561;-66
2021/08/03 01:21:24;;;;;;;7.20;4.92;;;;;;;15.38;71.84;100102.47;2135462;83;29626;-66
2021/08/03 01:25:01;;;;;;;8.45;4.67;;;;;;;15.41;71.78;100109.47;2122556;83;27771;-66
2021/08/03 01:28:25;;;;;;;5.72;4.12;;;;;;;15.42;71.84;100112.55;2073213;84;29469;-66
2021/08/03 01:31:30;;;;;;;6.75;4.30;;;;;;;15.42;71.69;100116.13;2052304;85;31030;-68
2021/08/03 01:34:35;;;;;;;9.35;4.17;;;;;;;15.39;71.61;100116.84;2050138;86;32968;-65
2021/08/03 01:37:37;;;;;;;6.22;4.67;;;;;;;15.36;71.68;100115.71;2049713;85;30267;-66
2021/08/03 01:40:43;;;;;;;7.12;4.35;;;;;;;15.33;71.62;100111.37;2055679;86;27791;-66
2021/08/03 01:43:47;;;;;;;7.08;4.83;;;;;;;15.28;71.49;100113.06;2055884;86;28814;-66
2021/08/03 01:46:50;;;;;;;6.15;4.40;;;;;;;15.23;71.49;100114.38;2056173;86;31194;-65
2021/08/03 01:49:53;;;;;;;6.20;4.03;;;;;;;15.17;71.52;100121.94;2062446;84;33748;-66
2021/08/03 01:52:57;;;;;;;7.92;4.37;;;;;;;15.07;71.27;100124.93;2050562;86;30297;-66
2021/08/03 01:55:59;;;;;;;6.33;4.40;;;;;;;15.07;71.27;100124.93;2008045;88;28392;-67
2021/08/03 01:59:02;;;;;;;7.20;4.03;;;;;;;15.03;71.66;100132.86;2007517;88;29737;-69
2021/08/03 02:02:05;;;;;;;6.15;4.42;;;;;;;14.99;71.81;100127.30;2006788;88;31855;-66
2021/08/03 02:05:08;;;;;;;4.62;4.17;;;;;;;14.94;71.79;100126.28;2002149;87;32969;-65
2021/08/03 02:08:11;;;;;;;5.95;4.58;;;;;;;14.92;71.81;100140.86;1989632;88;30442;-66
2021/08/03 02:11:13;;;;;;;6.05;4.15;;;;;;;14.88;71.83;100142.42;2056197;86;27668;-66
2021/08/03 02:14:15;;;;;;;10.03;5.12;;;;;;;14.83;71.89;100141.87;2056580;86;28757;-65
2021/08/03 02:17:22;;;;;;;6.08;4.33;;;;;;;14.78;71.88;100146.74;2055267;84;32183;-67
2021/08/03 02:20:24;;;;;;;7.67;4.70;;;;;;;14.74;71.92;100151.96;2075339;84;33223;-66
2021/08/03 02:23:27;;;;;;;7.12;4.78;;;;;;;14.69;72.01;100156.80;2092707;85;30342;-66
2021/08/03 02:26:28;;;;;;;5.45;4.85;;;;;;;14.63;72.16;100149.97;2077605;85;27719;-66
2021/08/03 02:29:31;;;;;;;5.72;4.53;;;;;;;14.60;72.17;100155.58;2078234;85;28728;-68
2021/08/03 02:32:53;;;;;;;10.43;4.47;;;;;;;14.58;72.30;100147.60;2065364;85;31042;-67
2021/08/03 02:36:00;;;;;;;5.92;4.50;;;;;;;14.59;72.50;100156.08;2078461;85;32970;-67
2021/08/03 02:39:04;;;;;;;6.65;4.60;;;;;;;14.60;72.60;100151.53;2078389;84;29693;-66
2021/08/03 02:42:08;;;;;;;5.70;4.22;;;;;;;14.60;72.74;100146.14;2046429;86;27629;-66
2021/08/03 02:45:12;;;;;;;7.27;4.83;;;;;;;14.62;72.88;100154.14;2078199;84;28706;-66
2021/08/03 02:48:15;;;;;;;7.00;4.33;;;;;;;14.63;73.00;100156.72;2097156;84;31105;-66
2021/08/03 02:51:18;;;;;;;6.42;4.90;;;;;;;14.65;73.11;100154.78;2095537;84;32979;-67
2021/08/03 02:54:25;;;;;;;5.10;4.05;;;;;;;14.67;73.05;100152.84;2092749;85;30521;-67
2021/08/03 02:57:28;;;;;;;5.87;4.50;;;;;;;14.71;73.27;100154.87;2057573;86;28136;-67
2021/08/03 03:00:35;;;;;;;7.58;4.30;;;;;;;14.73;73.21;100163.72;2061934;86;29571;-68
2021/08/03 03:03:41;;;;;;;5.95;4.62;;;;;;;14.74;73.26;100162.25;2141248;83;31832;-68
2021/08/03 03:06:45;;;;;;;4.92;4.12;;;;;;;14.77;73.21;100169.28;2131106;83;33038;-68
2021/08/03 03:09:47;;;;;;;5.83;3.77;;;;;;;14.78;73.16;100166.97;2095715;84;30433;-66
2021/08/03 03:13:07;;;;;;;6.70;4.50;;;;;;;14.78;73.08;100168.78;2095666;85;27711;-68
2021/08/03 03:16:09;;;;;;;4.67;4.08;;;;;;;14.78;73.11;100173.71;2095484;83;28667;-66
2021/08/03 03:19:11;;;;;;;4.40;3.90;;;;;;;14.77;73.09;100173.33;2095833;84;31856;-67
2021/08/03 03:22:13;;;;;;;5.50;4.58;;;;;;;14.78;73.23;100171.02;2077862;84;33113;-67
2021/08/03 03:25:25;;;;;;;5.25;4.50;;;;;;;14.82;73.29;100179.75;2107734;84;30460;-68
2021/08/03 03:28:33;;;;;;;5.55;4.55;;;;;;;14.85;73.33;100179.53;2108644;83;27711;-67
2021/08/03 03:31:36;;;;;;;6.35;4.35;;;;;;;14.88;73.46;100177.48;2057075;86;28719;-68
2021/08/03 03:34:41;;;;;;;5.35;3.98;;;;;;;14.92;73.52;100175.42;2017542;88;31860;-66
2021/08/03 03:37:53;;;;;;;6.25;4.05;;;;;;;14.96;73.54;100176.94;2077752;84;29716;-67
2021/08/03 03:40:58;;;;;;;8.13;4.47;;;;;;;15.02;73.62;100179.69;2092311;85;30433;-66
2021/08/03 03:44:09;;;;;;;5.60;3.87;;;;;;;15.08;73.74;100181.97;2092400;85;27701;-67
2021/08/03 03:47:20;;;;;;;4.37;3.98;;;;;;;15.13;73.70;100174.89;2055931;86;28735;-67
2021/08/03 03:50:31;;;;;;;6.50;4.55;;;;;;;15.19;73.62;100181.21;2057069;86;31778;-66
2021/08/03 03:53:53;;;;;;;5.83;4.00;;;;;;;15.25;73.54;100184.80;2057272;86;33814;-65
2021/08/03 03:56:59;;;;;;;5.75;5.15;;;;;;;15.31;73.64;100189.78;2133843;83;29666;-65
2021/08/03 04:00:03;;;;;;;6.83;4.97;;;;;;;15.39;73.55;100178.92;2103820;84;27655;-65
2021/08/03 04:03:06;;;;;;;8.93;4.53;;;;;;;15.45;73.58;100182.05;2104247;84;28661;-65
2021/08/03 04:06:08;;;;;;;4.95;4.50;;;;;;;15.52;73.55;100183.81;2104039;84;30455;-65
2021/08/03 04:09:23;;;;;;;6.62;4.40;;;;;;;15.60;73.51;100184.61;2117078;83;33939;-67
2021/08/03 04:12:26;;;;;;;5.72;4.22;;;;;;;15.68;73.57;100190.80;2104419;83;30594;-67
2021/08/03 04:15:29;;;;;;;6.47;4.20;;;;;;;15.76;73.53;100188.38;2103877;84;27833;-67
2021/08/03 04:18:31;;;;;;;5.42;4.62;;;;;;;15.82;73.30;100185.24;2105764;83;29319;-66
2021/08/03 04:21:34;;;;;;;5.45;4.62;;;;;;;15.90;73.24;100185.55;2104032;84;31022;-66
2021/08/03 04:24:36;;;;;;;6.08;4.53;;;;;;;15.99;73.02;100185.36;2103917;84;33752;-68
2021/08/03 04:27:38;;;;;;;6.37;4.47;;;;;;;16.04;72.90;100184.54;2123824;83;29694;-66
2021/08/03 04:30:41;;;;;;;6.62;4.15;;;;;;;16.07;72.75;100184.31;2134781;83;28311;-66
2021/08/03 04:33:44;;;;;;;5.35;4.33;;;;;;;16.10;72.58;100184.09;2134972;83;28637;-65
2021/08/03 04:36:46;;;;;;;5.60;4.37;;;;;;;16.15;72.50;100181.51;2134227;82;31820;-69
2021/08/03 04:39:49;;;;;;;7.33;4.28;;;;;;;16.19;72.44;100179.84;2139930;83;32957;-67
2021/08/03 04:42:56;;;;;;;6.60;4.72;;;;;;;16.23;72.35;100180.46;2139654;83;30431;-66
2021/08/03 04:45:58;;;;;;;5.58;4.40;;;;;;;16.29;72.34;100180.48;2138999;83;27680;-66
2021/08/03 04:49:01;;;;;;;4.65;4.20;;;;;;;16.51;72.05;100178.34;2134661;83;28700;-68
2021/08/03 04:52:05;;;;;;;7.85;4.28;;;;;;;16.51;72.05;100178.34;2131096;83;31035;-67
2021/08/03 04:55:09;;;;;;;5.10;4.60;;;;;;;16.76;72.17;100177.83;2122096;83;33142;-71
2021/08/03 04:58:11;;;;;;;7.62;4.10;;;;;;;17.41;72.63;100175.45;2120776;83;29653;-67
2021/08/03 05:01:14;;;;;;;5.50;3.90;;;;;;;18.65;72.63;100174.27;2122574;83;27710;-67
2021/08/03 05:04:16;;;;;;;8.45;4.20;;;;;;;20.04;71.67;100172.06;2104110;83;29447;-68
2021/08/03 05:07:18;;;;;;;5.53;3.95;;;;;;;21.34;69.78;100169.92;2091950;85;31848;-66
2021/08/03 05:10:21;;;;;;;8.70;4.17;;;;;;;22.03;67.83;100160.02;2092276;85;33122;-67
2021/08/03 05:13:23;;;;;;;9.35;3.08;;;;;;;22.37;66.09;100162.06;2099806;83;30255;-67
2021/08/03 05:16:26;;;;;;;3.72;3.33;;;;;;;22.49;65.19;100164.57;2122576;83;27762;-67
2021/08/03 05:19:28;;;;;;;7.20;3.75;;;;;;;22.45;64.50;100165.41;2127923;83;28817;-67
2021/08/03 05:22:30;;;;;;;7.12;3.58;;;;;;;22.48;64.18;100175.14;2122547;83;31138;-66
2021/08/03 05:25:32;;;;;;;4.28;3.80;;;;;;;22.46;63.54;100172.05;2092327;85;33358;-66
2021/08/03 05:28:34;;;;;;;4.90;3.60;;;;;;;22.52;63.30;100175.19;2092178;85;30323;-66
2021/08/03 05:31:36;;;;;;;5.30;3.67;;;;;;;22.55;62.85;100180.34;2092388;85;27626;-66
2021/08/03 05:34:38;;;;;;;3.90;3.47;;;;;;;22.61;62.57;100180.55;2093164;83;29464;-66
2021/08/03 05:37:40;;;;;;;6.85;3.87;;;;;;;22.57;61.81;100183.25;2092359;85;31165;-67
2021/08/03 05:40:42;;;;;;;4.03;3.45;;;;;;;22.53;61.73;100179.11;2092309;85;32960;-66
2021/08/03 05:43:44;;;;;;;5.60;3.40;;;;;;;22.53;61.36;100181.84;2103987;83;29745;-66
2021/08/03 05:46:46;;;;;;;5.35;3.10;;;;;;;22.51;61.00;100174.31;2122779;83;27625;-66
2021/08/03 05:49:48;;;;;;;4.22;3.40;;;;;;;22.48;60.94;100173.77;2122685;83;28697;-67
2021/08/03 05:52:50;;;;;;;7.78;3.52;;;;;;;22.44;60.46;100172.72;2120400;83;31199;-67
2021/08/03 05:55:52;;;;;;;4.47;3.60;;;;;;;22.45;60.55;100166.77;2086326;84;33010;-67
2021/08/03 05:58:54;;;;;;;3.90;3.10;;;;;;;22.54;60.61;100171.27;2122563;83;30318;-67
2021/08/03 06:01:55;;;;;;;4.90;3.58;;;;;;;22.61;59.87;100172.86;2086309;85;27678;-66
2021/08/03 06:04:57;;;;;;;6.37;3.77;;;;;;;22.59;59.20;100172.16;2099306;83;28641;-67
2021/08/03 06:08:00;;;;;;;4.62;3.40;;;;;;;22.75;58.98;100181.00;2092371;85;31818;-67
2021/08/03 06:11:03;;;;;;;5.83;3.45;;;;;;;22.95;58.60;100186.27;2092326;85;32995;-67
2021/08/03 06:14:08;;;;;;;4.30;3.00;;;;;;;23.11;58.11;100179.55;2093808;83;29642;-66
2021/08/03 06:17:13;;;;;;;4.97;3.02;;;;;;;23.50;57.59;100183.19;2092096;85;27691;-66
2021/08/03 06:20:15;;;;;;;5.10;2.85;;;;;;;23.77;57.17;100184.01;2071829;85;46183;-67
2021/08/03 06:23:17;;;;;;;6.50;3.05;;;;;;;24.18;56.39;100183.79;2104850;83;31087;-67
2021/08/03 06:26:21;;;;;;;4.72;2.87;;;;;;;24.71;55.89;100178.92;2085827;84;32995;-68
2021/08/03 06:29:25;;;;;;;3.50;2.92;;;;;;;25.05;55.15;100183.34;2122293;83;29673;-67
2021/08/03 06:32:27;;;;;;;5.50;2.70;;;;;;;25.44;54.75;100178.98;2113329;83;27618;-66
2021/08/03 06:35:29;;;;;;;2.77;2.58;;;;;;;26.41;54.00;100175.05;2092552;85;28695;-67
2021/08/03 06:38:31;;;;;;;7.40;2.72;;;;;;;27.48;53.25;100184.71;2092382;85;31019;-67
2021/08/03 06:41:41;;;;;;;4.15;2.47;;;;;;;28.43;51.51;100181.53;2092414;85;33785;-67
2021/08/03 06:45:00;;;;;;;2.92;2.62;;;;;;;29.14;49.43;100174.30;2121914;83;29671;-66
2021/08/03 06:48:09;;;;;;;6.10;2.98;;;;;;;29.79;48.35;100173.20;2122724;83;27694;-66
2021/08/03 06:51:16;;;;;;;3.22;2.75;;;;;;;30.45;47.72;100162.86;2085902;85;28695;-65
2021/08/03 06:54:18;;;;;;;4.03;2.40;;;;;;;30.29;45.98;100161.89;2104824;83;33384;-67
2021/08/03 06:57:21;;;;;;;5.12;2.42;;;;;;;30.03;45.80;100173.21;2136180;83;33808;-66
2021/08/03 07:01:01;;;;;;;4.60;2.95;;;;;;;30.11;45.43;100168.89;2109589;83;29830;-67
2021/08/03 07:04:20;;;;;;;2.65;2.45;;;;;;;30.53;44.48;100176.17;2088423;83;27795;-66
2021/08/03 07:07:04;;;;;;;4.17;2.72;;;;;;;30.86;43.88;100176.75;2079443;84;27765;-66
2021/08/03 07:10:09;;;;;;;4.28;2.50;;;;;;;31.16;43.19;100169.40;2104443;83;31084;-66
2021/08/03 07:13:13;;;;;;;2.90;2.70;;;;;;;31.43;41.87;100170.73;2132026;83;33647;-67
2021/08/03 07:16:16;;;;;;;4.05;2.80;;;;;;;31.61;41.98;100168.09;2134261;83;30259;-68
2021/08/03 07:19:19;;;;;;;3.45;3.10;;;;;;;31.92;41.50;100172.59;2135128;83;27469;-68
2021/08/03 07:22:20;;;;;;;3.72;2.33;;;;;;;32.06;40.54;100170.61;2133404;83;28757;-68
2021/08/03 07:25:22;;;;;;;4.03;2.20;;;;;;;32.34;40.72;100170.25;2135022;83;31894;-68
2021/08/03 07:28:24;;;;;;;4.55;2.50;;;;;;;32.58;39.99;100167.20;2137369;83;33724;-70
2021/08/03 07:31:25;;;;;;;3.30;2.55;;;;;;;32.71;39.25;100170.93;2136752;83;30487;-65
2021/08/03 07:34:27;;;;;;;4.80;2.45;;;;;;;32.87;38.97;100166.75;2134794;83;27652;-65
2021/08/03 07:37:30;;;;;;;2.70;2.47;;;;;;;33.07;38.01;100169.88;2119470;83;28804;-67
2021/08/03 07:40:32;;;;;;;2.45;2.30;;;;;;;33.09;37.72;100163.56;2104375;84;31055;-68
2021/08/03 07:43:34;;;;;;;5.05;3.08;;;;;;;33.32;37.87;100165.15;2111563;83;33103;-67
2021/08/03 07:46:37;;;;;;;2.72;2.50;;;;;;;33.58;37.06;100160.38;2104066;84;30320;-66
2021/08/03 07:49:39;;;;;;;3.00;2.70;;;;;;;33.82;37.24;100159.13;2078963;83;27748;-66
2021/08/03 07:52:40;;;;;;;2.95;2.55;;;;;;;33.99;36.88;100162.13;2140130;83;28682;-66
2021/08/03 07:55:42;;;;;;;2.70;2.47;;;;;;;34.19;36.07;100160.44;2134401;83;31045;-67
2021/08/03 07:58:44;;;;;;;2.80;2.52;;;;;;;34.34;35.99;100161.41;2099229;84;33160;-66
2021/08/03 08:01:46;;;;;;;2.75;2.15;;;;;;;34.45;35.09;100164.47;2134897;83;29679;-65
2021/08/03 08:04:48;;;;;;;3.40;2.55;;;;;;;34.33;34.00;100167.22;2097460;84;28250;-65
2021/08/03 08:07:51;;;;;;;5.28;2.62;;;;;;;34.22;33.98;100166.09;2099597;84;28649;-66
2021/08/03 08:10:53;;;;;;;4.45;2.70;;;;;;;34.33;33.80;100168.61;2115158;83;31036;-66
2021/08/03 08:13:56;;;;;;;6.65;2.75;;;;;;;34.33;33.57;100172.77;2091580;85;33867;-66
2021/08/03 08:17:00;;;;;;;3.90;2.60;;;;;;;34.35;33.17;100164.49;2091620;85;29643;-67
2021/08/03 08:20:01;;;;;;;2.85;2.60;;;;;;;34.46;33.67;100173.98;2092223;83;27668;-66
2021/08/03 08:23:03;;;;;;;6.30;2.85;;;;;;;34.34;32.74;100168.36;2091886;85;28798;-66
2021/08/03 08:26:05;;;;;;;19.50;3.10;;;;;;;34.37;32.74;100165.63;2091680;85;31021;-67
2021/08/03 08:29:06;;;;;;;4.83;2.95;;;;;;;34.55;32.76;100157.80;2097616;84;32928;-66
2021/08/03 08:32:09;;;;;;;5.62;2.60;;;;;;;34.62;32.25;100162.69;2099677;84;29624;-66
2021/08/03 08:35:12;;;;;;;5.40;2.75;;;;;;;34.55;31.31;100157.80;2099714;84;27698;-67
2021/08/03 08:38:13;;;;;;;4.40;2.35;;;;;;;34.39;31.68;100161.55;2099463;84;29476;-68
2021/08/03 08:41:16;;;;;;;2.92;2.40;;;;;;;34.48;31.77;100161.22;2100303;83;31017;-67
2021/08/03 08:44:19;;;;;;;7.03;2.45;;;;;;;34.48;31.04;100157.91;2092405;83;32978;-67
2021/08/03 08:47:21;;;;;;;;;;;;;;;34.45;30.80;100154.73;2137535;83;29706;-66
2021/08/03 08:50:25;;;;;;;5.62;2.70;;;;;;;34.44;30.75;100164.16;2134623;83;27682;-67
2021/08/03 08:53:27;;;;;;;3.08;2.77;;;;;;;34.31;30.85;100156.87;2134758;83;28649;-72
2021/08/03 08:56:30;;;;;;;2.58;2.37;;;;;;;34.37;30.88;100160.06;2096794;83;32174;-72
2021/08/03 08:59:32;;;;;;;3.77;2.47;;;;;;;34.58;31.47;100153.68;2094061;83;33976;-75
2021/08/03 09:02:41;;;;;;;2.65;2.45;;;;;;;34.72;31.12;100158.48;2117290;83;29901;-69
2021/08/03 09:05:43;;;;;;;3.65;2.55;;;;;;;34.65;30.81;100158.05;2108402;83;27694;-71
2021/08/03 09:08:47;;;;;;;4.35;2.60;;;;;;;34.23;30.23;100156.66;2099104;83;28756;-73
2021/08/03 09:11:48;;;;;;;;;;;;;;;34.02;30.29;100155.23;2125185;83;31031;-71
2021/08/03 09:14:50;;;;;;;2.25;1.98;;;;;;;33.71;30.27;100154.34;2117161;82;33103;-71
2021/08/03 09:17:52;;;;;;;2.55;2.33;;;;;;;33.25;30.02;100155.20;2092258;85;30450;-73
2021/08/03 09:20:54;;;;;;;2.35;2.15;;;;;;;32.72;30.57;100158.77;2093939;83;27635;-73
2021/08/03 09:23:59;;;;;;;2.87;2.00;;;;;;;32.46;30.69;100152.34;2093751;83;28695;-70
2021/08/03 09:27:01;;;;;;;3.00;2.20;;;;;;;32.38;30.90;100154.02;2127747;83;32094;-70
2021/08/03 09:30:05;;;;;;;2.92;2.00;;;;;;;32.36;31.01;100159.77;2108440;83;33044;-72
2021/08/03 09:33:06;;;;;;;;;;;;;;;32.24;31.08;100158.76;2094686;85;30509;-72
2021/08/03 09:36:08;;;;;;;3.27;2.90;;;;;;;31.91;31.05;100152.36;2092440;85;27639;-71
2021/08/03 09:39:35;;;;;;;2.25;1.95;;;;;;;31.70;31.18;100153.50;2094035;83;29447;-73
2021/08/03 09:42:37;;;;;;;3.37;2.00;;;;;;;31.37;31.18;100150.28;2091583;85;31763;-72
2021/08/03 09:45:50;;;;;;;7.15;2.50;;;;;;;31.10;31.71;100150.33;2092564;85;33024;-74
2021/08/03 09:48:52;;;;;;;2.25;2.00;;;;;;;30.98;31.80;100150.13;2096477;83;29638;-79
2021/08/03 09:52:05;;;;;;;4.83;2.30;;;;;;;30.96;32.04;100154.19;2108683;83;27730;-73
2021/08/03 09:55:14;;;;;;;2.90;2.70;;;;;;;30.75;32.25;100150.06;2078631;84;28680;-74
2021/08/03 09:58:16;;;;;;;2.98;1.82;;;;;;;30.46;31.58;100145.77;2084663;85;32220;-70
2021/08/03 10:32:40;;;;;;;2.52;2.33;;;;;;;30.02;34.35;100121.78;2231526;79;27792;-69
2021/08/03 10:35:50;;;;;;;2.77;2.22;;;;;;;30.00;33.72;100126.14;2177239;81;27696;-70
2021/08/03 10:39:19;;;;;;;2.77;2.20;;;;;;;29.95;34.23;100125.05;2183875;80;28799;-73
2021/08/03 10:42:24;;;;;;;4.92;2.02;;;;;;;29.79;33.84;100117.42;2181928;81;30990;-65
2021/08/03 10:45:27;;;;;;;4.72;2.40;;;;;;;29.69;34.16;100114.22;2181308;81;32982;-68
2021/08/03 10:48:43;;;;;;;4.67;1.92;;;;;;;29.61;34.10;100117.17;2182720;80;28453;-67
2021/08/03 10:51:47;;;;;;;2.20;2.00;;;;;;;29.61;34.88;100122.16;2206769;80;27688;-65
2021/08/03 10:54:55;;;;;;;2.40;2.20;;;;;;;29.67;34.44;100112.19;2211744;80;29302;-68
2021/08/03 10:58:17;;;;;;;2.25;2.02;;;;;;;29.69;34.84;100108.70;2166136;80;31033;-71
2021/08/03 11:01:44;;;;;;;3.20;2.20;;;;;;;29.43;33.62;100103.92;2172418;80;33766;-70
2021/08/03 11:04:56;;;;;;;2.15;2.05;;;;;;;29.24;33.63;100100.31;2104094;84;29884;-67
2021/08/03 11:08:09;;;;;;;3.37;2.00;;;;;;;29.06;33.36;100105.51;2103669;84;27767;-69
2021/08/03 11:11:24;;;;;;;2.25;1.90;;;;;;;28.78;33.63;100101.72;2099271;84;29501;-66
2021/08/03 11:14:28;;;;;;;1.98;1.80;;;;;;;28.60;33.73;100098.58;2104192;84;31059;-68
2021/08/03 11:18:08;;;;;;;3.73;2.23;;;;;;;28.27;34.52;100102.77;2102855;84;33028;-68
2021/08/03 11:21:15;;;;;;;2.55;2.10;;;;;;;28.26;34.54;100100.20;2086923;84;29492;-67
2021/08/03 11:24:34;;;;;;;2.50;2.30;;;;;;;27.94;34.42;100097.75;2086876;82;27684;-68
2021/08/03 11:27:36;;;;;;;2.05;1.75;;;;;;;27.65;34.87;100082.17;2087009;84;30044;-67
2021/08/03 11:30:39;;;;;;;2.10;1.50;;;;;;;27.58;35.03;100083.48;2086334;84;32128;-67
2021/08/03 11:33:41;;;;;;;2.50;2.30;;;;;;;27.43;35.22;100073.33;2086858;85;33007;-69
2021/08/03 11:37:13;;;;;;;1.95;1.85;;;;;;;27.45;35.70;100068.99;2090913;84;28786;-68
2021/08/03 11:40:16;;;;;;;1.90;1.80;;;;;;;27.59;35.68;100078.30;2088893;82;27743;-68
2021/08/03 11:43:22;;;;;;;3.00;1.75;;;;;;;27.64;35.62;100081.84;2180506;80;28671;-68
2021/08/03 11:46:26;;;;;;;1.90;1.80;;;;;;;27.85;36.22;100080.50;2210713;80;31906;-68
2021/08/03 11:49:32;;;;;;;2.27;2.07;;;;;;;28.18;36.04;100079.15;2210964;80;33030;-66
2021/08/03 11:52:34;;;;;;;2.40;2.20;;;;;;;28.49;35.58;100072.41;2205081;80;29701;-69
2021/08/03 11:55:39;;;;;;;2.45;1.92;;;;;;;28.75;35.91;100068.20;2189033;80;27635;-66
2021/08/03 11:58:42;;;;;;;2.62;1.70;;;;;;;28.84;35.80;100075.78;2179867;81;28812;-65
2021/08/03 12:01:53;;;;;;;2.62;2.08;;;;;;;28.91;35.57;100059.61;2181702;80;31074;-67
2021/08/03 12:05:22;;;;;;;2.65;1.98;;;;;;;28.91;35.71;100060.11;2065385;85;32985;-64
2021/08/03 12:08:35;;;;;;;1.90;1.80;;;;;;;28.77;34.28;100062.80;2065034;86;30062;-67
2021/08/03 12:11:37;;;;;;;2.65;1.92;;;;;;;28.43;35.15;100056.16;2065401;86;28117;-65
2021/08/03 12:14:39;;;;;;;12.47;2.80;;;;;;;28.23;35.75;100046.36;2065163;86;28211;-65
2021/08/03 12:17:43;;;;;;;6.40;2.05;;;;;;;28.15;36.12;100040.98;2064979;86;32240;-69
2021/08/03 12:20:53;;;;;;;2.67;2.47;;;;;;;27.85;36.14;100039.72;2065165;86;33139;-67
2021/08/03 12:24:07;;;;;;;4.05;3.65;;;;;;;27.68;36.03;100043.27;2064888;86;28927;-67
2021/08/03 12:27:11;;;;;;;1.98;1.87;;;;;;;27.64;37.21;100045.53;2064855;86;28188;-68
2021/08/03 12:30:38;;;;;;;2.98;2.35;;;;;;;27.73;37.43;100039.38;2064065;84;28656;-67
2021/08/03 12:33:40;;;;;;;5.37;2.15;;;;;;;27.84;37.50;100043.01;2068826;86;31913;-68
2021/08/03 12:36:46;;;;;;;1.80;1.70;;;;;;;27.88;37.11;100039.33;2068962;86;33453;-66
2021/08/03 12:39:48;;;;;;;2.47;1.77;;;;;;;27.85;37.37;100043.84;2068724;86;28746;-66
2021/08/03 12:42:53;;;;;;;5.78;1.92;;;;;;;27.79;37.51;100048.24;2068905;86;27694;-67
2021/08/03 12:45:58;;;;;;;5.85;1.90;;;;;;;27.66;37.69;100052.23;2068101;86;28638;-67
2021/08/03 12:49:00;;;;;;;5.47;2.12;;;;;;;27.47;37.73;100044.09;2068719;86;31425;-66
2021/08/03 12:52:24;;;;;;;2.30;1.70;;;;;;;27.04;38.11;100053.87;2068706;86;33012;-66
2021/08/03 12:58:56;;;;;;;1.70;1.60;;;;;;;26.16;37.98;100049.43;2068641;86;27741;-68
2021/08/03 13:01:58;;;;;;;1.75;1.65;;;;;;;25.72;39.33;100052.30;2141153;81;29549;-64
2021/08/03 13:05:00;;;;;;;2.33;1.80;;;;;;;25.42;40.59;100043.38;2188726;80;31792;-64
2021/08/03 13:08:02;;;;;;;1.70;1.60;;;;;;;25.07;41.63;100033.77;2213889;80;33007;-64
2021/08/03 13:11:05;;;;;;;3.67;1.70;;;;;;;24.81;42.65;100028.89;2206871;80;29473;-64
2021/08/03 13:14:06;;;;;;;1.40;1.30;;;;;;;24.64;43.67;100025.82;2187510;81;27668;-65
2021/08/03 13:17:09;;;;;;;2.58;2.25;;;;;;;24.63;44.08;100014.52;2206582;80;28662;-67
2021/08/03 13:20:13;;;;;;;2.40;1.60;;;;;;;24.66;44.54;100005.96;2214006;80;31035;-68
2021/08/03 13:23:16;;;;;;;1.12;1.10;;;;;;;24.73;44.38;99996.89;2210833;80;33720;-65
2021/08/03 13:26:19;;;;;;;1.55;1.27;;;;;;;24.70;43.80;99990.92;2214093;80;28916;-68
2021/08/03 13:29:21;;;;;;;1.05;0.95;;;;;;;24.84;43.93;99993.42;2213983;80;28083;-67
2021/08/03 13:32:23;;;;;;;1.10;0.85;;;;;;;25.00;44.07;99980.18;2210099;80;29938;-66
2021/08/03 13:35:25;;;;;;;3.17;1.20;;;;;;;25.16;43.19;99981.97;2211536;80;31098;-69
2021/08/03 13:38:27;;;;;;;2.02;1.20;;;;;;;25.33;43.19;99982.73;2211526;80;33175;-66
2021/08/03 13:41:30;;;;;;;2.40;1.20;;;;;;;25.50;42.69;99976.65;2209476;80;29881;-67
2021/08/03 13:44:32;;;;;;;1.22;1.12;;;;;;;25.67;43.02;99981.52;2211401;80;27673;-67
2021/08/03 13:47:34;;;;;;;3.58;1.37;;;;;;;25.86;42.39;99973.29;2211500;80;28945;-68
2021/08/03 13:50:37;;;;;;;1.00;1.00;;;;;;;26.07;42.46;99974.48;2211236;80;31571;-65
2021/08/03 13:53:39;;;;;;;2.05;0.90;;;;;;;26.25;42.35;99972.79;2191110;80;34130;-65
2021/08/03 13:56:41;;;;;;;0.70;0.70;;;;;;;26.40;41.93;99978.31;2188232;80;29780;-69
2021/08/03 13:59:43;;;;;;;1.60;1.10;;;;;;;26.54;40.78;99969.22;2188319;80;27685;-65
2021/08/03 14:02:45;;;;;;;0.80;0.80;;;;;;;26.65;40.69;99967.90;2200059;80;28945;-69
2021/08/03 14:05:47;;;;;;;0.70;0.60;;;;;;;26.72;39.75;99971.27;2211371;80;31340;-69
2021/08/03 14:08:51;;;;;;;1.05;0.88;;;;;;;26.75;39.11;99966.23;2211248;80;32934;-65
2021/08/03 14:11:53;;;;;;;1.15;1.05;;;;;;;26.68;37.85;99960.66;2205328;80;29561;-69
2021/08/03 14:14:54;;;;;;;1.65;0.90;;;;;;;26.61;37.33;99961.07;2188262;81;27693;-69
2021/08/03 14:17:56;;;;;;;0.75;0.70;;;;;;;26.49;37.13;99963.43;2188094;81;28626;-69
2021/08/03 14:20:58;;;;;;;1.47;1.10;;;;;;;26.34;36.85;99960.70;2173035;81;31951;-68
2021/08/03 14:24:00;;;;;;;2.02;1.35;;;;;;;26.20;37.14;99954.67;2189452;80;33123;-69
2021/08/03 14:27:03;;;;;;;1.12;1.02;;;;;;;26.08;37.56;99956.45;2188390;81;28755;-68
2021/08/03 14:30:06;;;;;;;1.20;1.10;;;;;;;25.94;37.33;99949.91;2189118;80;27673;-66
2021/08/03 14:33:10;;;;;;;1.37;1.27;;;;;;;25.77;36.96;99942.86;2188033;80;28696;-69
2021/08/03 14:36:12;;;;;;;1.10;1.00;;;;;;;25.61;37.35;99937.84;2188457;80;31034;-69
2021/08/03 14:39:14;;;;;;;1.65;1.50;;;;;;;25.42;37.25;99930.09;2187860;81;34247;-69
2021/08/03 14:42:16;;;;;;;1.42;1.32;;;;;;;25.23;37.79;99924.02;2189050;80;29756;-69
2021/08/03 14:45:19;;;;;;;1.12;1.05;;;;;;;25.07;37.26;99926.87;2188265;80;27721;-67
2021/08/03 14:48:20;;;;;;;2.20;1.95;;;;;;;24.88;37.50;99918.93;2188211;80;28649;-68
2021/08/03 14:51:22;;;;;;;2.90;1.40;;;;;;;24.76;37.35;99909.91;2189490;80;31057;-65
2021/08/03 14:54:24;;;;;;;1.17;1.10;;;;;;;24.56;36.96;99910.30;2188144;81;33849;-66
2021/08/03 14:57:27;;;;;;;1.30;1.20;;;;;;;24.44;37.92;99905.72;2188174;81;28717;-69